sensor_id;sensor_type;location;lat;lon;timestamp;temperature;humidity
72772;SHT30;60894;42.544;1.516;2023-12-20T00:01:14;3.78;54.96
72772;SHT30;60894;42.544;1.516;2023-12-20T00:03:41;3.93;53.79
72772;SHT30;60894;42.544;1.516;2023-12-20T00:06:10;3.72;53.01
72772;SHT30;60894;42.544;1.516;2023-12-20T00:08:37;3.62;55.90
72772;SHT30;60894;42.544;1.516;2023-12-20T00:11:04;3.51;54.90
72772;SHT30;60894;42.544;1.516;2023-12-20T00:13:31;3.55;53.45
72772;SHT30;60894;42.544;1.516;2023-12-20T00:15:58;3.45;54.62
72772;SHT30;60894;42.544;1.516;2023-12-20T00:18:25;3.31;55.86
72772;SHT30;60894;42.544;1.516;2023-12-20T00:20:52;3.30;55.75
72772;SHT30;60894;42.544;1.516;2023-12-20T00:23:20;3.33;55.45
72772;SHT30;60894;42.544;1.516;2023-12-20T00:25:48;3.37;54.68
72772;SHT30;60894;42.544;1.516;2023-12-20T00:28:15;3.31;51.01
72772;SHT30;60894;42.544;1.516;2023-12-20T00:30:42;3.27;54.59
72772;SHT30;60894;42.544;1.516;2023-12-20T00:33:09;3.21;54.73
72772;SHT30;60894;42.544;1.516;2023-12-20T00:35:36;3.16;57.11
72772;SHT30;60894;42.544;1.516;2023-12-20T00:38:03;3.09;56.70
72772;SHT30;60894;42.544;1.516;2023-12-20T00:40:33;3.09;56.45
72772;SHT30;60894;42.544;1.516;2023-12-20T00:43:00;3.23;55.52
72772;SHT30;60894;42.544;1.516;2023-12-20T00:45:27;3.17;54.92
72772;SHT30;60894;42.544;1.516;2023-12-20T00:47:54;3.16;53.60
72772;SHT30;60894;42.544;1.516;2023-12-20T00:50:21;3.23;51.48
72772;SHT30;60894;42.544;1.516;2023-12-20T00:52:48;3.17;51.46
72772;SHT30;60894;42.544;1.516;2023-12-20T00:55:15;3.07;54.17
72772;SHT30;60894;42.544;1.516;2023-12-20T00:57:43;2.96;53.25
72772;SHT30;60894;42.544;1.516;2023-12-20T01:00:11;2.90;54.81
72772;SHT30;60894;42.544;1.516;2023-12-20T01:02:38;3.00;54.75
72772;SHT30;60894;42.544;1.516;2023-12-20T01:05:06;2.90;50.11
72772;SHT30;60894;42.544;1.516;2023-12-20T01:07:34;3.00;52.02
72772;SHT30;60894;42.544;1.516;2023-12-20T01:10:01;2.79;52.90
72772;SHT30;60894;42.544;1.516;2023-12-20T01:12:28;2.83;50.86
72772;SHT30;60894;42.544;1.516;2023-12-20T01:14:57;2.76;52.91
72772;SHT30;60894;42.544;1.516;2023-12-20T01:17:24;2.79;52.65
72772;SHT30;60894;42.544;1.516;2023-12-20T01:19:51;2.89;49.29
72772;SHT30;60894;42.544;1.516;2023-12-20T01:22:18;2.93;52.77
72772;SHT30;60894;42.544;1.516;2023-12-20T01:24:45;2.97;53.30
72772;SHT30;60894;42.544;1.516;2023-12-20T01:27:12;2.97;53.23
72772;SHT30;60894;42.544;1.516;2023-12-20T01:29:39;3.10;48.08
72772;SHT30;60894;42.544;1.516;2023-12-20T01:32:07;3.17;49.22
72772;SHT30;60894;42.544;1.516;2023-12-20T01:34:34;3.30;46.99
72772;SHT30;60894;42.544;1.516;2023-12-20T01:37:01;3.27;49.56
72772;SHT30;60894;42.544;1.516;2023-12-20T01:39:29;3.67;43.81
72772;SHT30;60894;42.544;1.516;2023-12-20T01:41:56;3.64;47.61
72772;SHT30;60894;42.544;1.516;2023-12-20T01:44:23;4.17;38.79
72772;SHT30;60894;42.544;1.516;2023-12-20T01:46:50;5.25;33.60
72772;SHT30;60894;42.544;1.516;2023-12-20T01:49:18;5.81;33.38
72772;SHT30;60894;42.544;1.516;2023-12-20T01:51:46;6.34;32.20
72772;SHT30;60894;42.544;1.516;2023-12-20T01:54:13;7.16;31.79
72772;SHT30;60894;42.544;1.516;2023-12-20T01:56:40;7.35;33.20
72772;SHT30;60894;42.544;1.516;2023-12-20T01:59:07;7.47;33.66
72772;SHT30;60894;42.544;1.516;2023-12-20T02:01:35;7.72;35.13
72772;SHT30;60894;42.544;1.516;2023-12-20T02:04:02;7.89;35.47
72772;SHT30;60894;42.544;1.516;2023-12-20T02:06:33;8.05;35.58
72772;SHT30;60894;42.544;1.516;2023-12-20T02:09:00;8.12;36.02
72772;SHT30;60894;42.544;1.516;2023-12-20T02:11:27;8.05;36.44
72772;SHT30;60894;42.544;1.516;2023-12-20T02:13:55;8.03;37.53
72772;SHT30;60894;42.544;1.516;2023-12-20T02:16:22;7.89;37.74
72772;SHT30;60894;42.544;1.516;2023-12-20T02:18:49;8.03;39.11
72772;SHT30;60894;42.544;1.516;2023-12-20T02:21:16;8.09;40.35
72772;SHT30;60894;42.544;1.516;2023-12-20T02:23:44;8.05;42.34
72772;SHT30;60894;42.544;1.516;2023-12-20T02:26:12;8.26;43.43
72772;SHT30;60894;42.544;1.516;2023-12-20T02:28:39;8.26;43.21
72772;SHT30;60894;42.544;1.516;2023-12-20T02:31:06;8.17;42.89
72772;SHT30;60894;42.544;1.516;2023-12-20T02:33:33;8.13;44.20
72772;SHT30;60894;42.544;1.516;2023-12-20T02:36:00;8.07;45.01
72772;SHT30;60894;42.544;1.516;2023-12-20T02:38:27;8.07;46.52
72772;SHT30;60894;42.544;1.516;2023-12-20T02:40:55;8.13;47.38
72772;SHT30;60894;42.544;1.516;2023-12-20T02:43:22;8.10;48.21
72772;SHT30;60894;42.544;1.516;2023-12-20T02:45:49;7.99;49.10
72772;SHT30;60894;42.544;1.516;2023-12-20T02:48:16;8.13;50.69
72772;SHT30;60894;42.544;1.516;2023-12-20T02:50:43;8.22;49.86
72772;SHT30;60894;42.544;1.516;2023-12-20T02:53:10;8.19;51.12
72772;SHT30;60894;42.544;1.516;2023-12-20T02:55:36;8.06;50.88
72772;SHT30;60894;42.544;1.516;2023-12-20T02:58:05;8.03;51.23
72772;SHT30;60894;42.544;1.516;2023-12-20T03:00:32;8.09;51.87
72772;SHT30;60894;42.544;1.516;2023-12-20T03:02:59;8.00;51.60
72772;SHT30;60894;42.544;1.516;2023-12-20T03:05:26;7.96;52.16
72772;SHT30;60894;42.544;1.516;2023-12-20T03:07:53;7.79;51.74
72772;SHT30;60894;42.544;1.516;2023-12-20T03:10:19;7.62;52.08
72772;SHT30;60894;42.544;1.516;2023-12-20T03:12:46;7.43;52.95
72772;SHT30;60894;42.544;1.516;2023-12-20T03:15:15;7.55;54.18
72772;SHT30;60894;42.544;1.516;2023-12-20T03:17:42;7.47;53.99
72772;SHT30;60894;42.544;1.516;2023-12-20T03:20:09;7.40;53.89
72772;SHT30;60894;42.544;1.516;2023-12-20T03:22:36;7.41;54.09
72772;SHT30;60894;42.544;1.516;2023-12-20T03:25:03;7.30;54.44
72772;SHT30;60894;42.544;1.516;2023-12-20T03:27:30;7.19;53.18
72772;SHT30;60894;42.544;1.516;2023-12-20T03:29:57;7.04;53.94
72772;SHT30;60894;42.544;1.516;2023-12-20T03:32:25;7.09;52.19
72772;SHT30;60894;42.544;1.516;2023-12-20T03:34:52;7.00;51.29
72772;SHT30;60894;42.544;1.516;2023-12-20T03:37:19;6.96;50.10
72772;SHT30;60894;42.544;1.516;2023-12-20T03:39:46;6.83;49.14
72772;SHT30;60894;42.544;1.516;2023-12-20T03:42:13;6.80;48.60
72772;SHT30;60894;42.544;1.516;2023-12-20T03:44:39;6.79;48.33
72772;SHT30;60894;42.544;1.516;2023-12-20T03:47:07;6.80;48.54
72772;SHT30;60894;42.544;1.516;2023-12-20T03:49:35;6.71;49.64
72772;SHT30;60894;42.544;1.516;2023-12-20T03:52:04;6.50;53.34
72772;SHT30;60894;42.544;1.516;2023-12-20T03:54:31;6.56;52.15
72772;SHT30;60894;42.544;1.516;2023-12-20T03:56:58;6.42;52.08
72772;SHT30;60894;42.544;1.516;2023-12-20T03:59:25;6.52;52.72
72772;SHT30;60894;42.544;1.516;2023-12-20T04:01:52;6.44;52.98
72772;SHT30;60894;42.544;1.516;2023-12-20T04:04:19;6.25;53.66
72772;SHT30;60894;42.544;1.516;2023-12-20T04:06:47;6.34;52.34
72772;SHT30;60894;42.544;1.516;2023-12-20T04:09:14;6.39;52.38
72772;SHT30;60894;42.544;1.516;2023-12-20T04:11:41;6.38;53.99
72772;SHT30;60894;42.544;1.516;2023-12-20T04:14:08;6.35;54.28
72772;SHT30;60894;42.544;1.516;2023-12-20T04:16:35;6.22;54.96
72772;SHT30;60894;42.544;1.516;2023-12-20T04:19:02;6.18;56.55
72772;SHT30;60894;42.544;1.516;2023-12-20T04:21:29;6.17;56.49
72772;SHT30;60894;42.544;1.516;2023-12-20T04:23:58;6.21;56.36
72772;SHT30;60894;42.544;1.516;2023-12-20T04:26:25;6.18;56.88
72772;SHT30;60894;42.544;1.516;2023-12-20T04:28:51;6.17;56.22
72772;SHT30;60894;42.544;1.516;2023-12-20T04:31:18;6.22;56.32
72772;SHT30;60894;42.544;1.516;2023-12-20T04:33:45;6.16;56.66
72772;SHT30;60894;42.544;1.516;2023-12-20T04:36:12;6.01;57.05
72772;SHT30;60894;42.544;1.516;2023-12-20T04:38:39;5.94;57.57
72772;SHT30;60894;42.544;1.516;2023-12-20T04:41:08;5.80;58.22
72772;SHT30;60894;42.544;1.516;2023-12-20T04:43:35;6.07;57.25
72772;SHT30;60894;42.544;1.516;2023-12-20T04:46:02;6.01;58.52
72772;SHT30;60894;42.544;1.516;2023-12-20T04:48:28;5.86;59.62
72772;SHT30;60894;42.544;1.516;2023-12-20T04:50:55;5.78;60.08
72772;SHT30;60894;42.544;1.516;2023-12-20T04:53:22;5.70;60.50
72772;SHT30;60894;42.544;1.516;2023-12-20T04:55:49;5.65;59.91
72772;SHT30;60894;42.544;1.516;2023-12-20T04:58:17;5.70;60.42
72772;SHT30;60894;42.544;1.516;2023-12-20T05:00:44;5.63;60.33
72772;SHT30;60894;42.544;1.516;2023-12-20T05:03:11;5.55;60.18
72772;SHT30;60894;42.544;1.516;2023-12-20T05:05:39;5.57;59.76
72772;SHT30;60894;42.544;1.516;2023-12-20T05:08:06;5.66;59.88
72772;SHT30;60894;42.544;1.516;2023-12-20T05:10:33;5.63;60.10
72772;SHT30;60894;42.544;1.516;2023-12-20T05:13:00;5.70;59.79
72772;SHT30;60894;42.544;1.516;2023-12-20T05:15:29;5.71;59.64
72772;SHT30;60894;42.544;1.516;2023-12-20T05:17:56;5.76;59.68
72772;SHT30;60894;42.544;1.516;2023-12-20T05:20:23;5.76;60.42
72772;SHT30;60894;42.544;1.516;2023-12-20T05:22:50;5.85;60.42
72772;SHT30;60894;42.544;1.516;2023-12-20T05:25:17;5.86;60.36
72772;SHT30;60894;42.544;1.516;2023-12-20T05:27:44;5.80;61.10
72772;SHT30;60894;42.544;1.516;2023-12-20T05:30:11;5.77;61.46
72772;SHT30;60894;42.544;1.516;2023-12-20T05:32:40;5.78;61.66
72772;SHT30;60894;42.544;1.516;2023-12-20T05:35:07;5.90;61.45
72772;SHT30;60894;42.544;1.516;2023-12-20T05:37:34;5.77;61.81
72772;SHT30;60894;42.544;1.516;2023-12-20T05:40:01;5.71;62.06
72772;SHT30;60894;42.544;1.516;2023-12-20T05:42:28;5.73;62.22
72772;SHT30;60894;42.544;1.516;2023-12-20T05:44:55;5.80;62.08
72772;SHT30;60894;42.544;1.516;2023-12-20T05:47:22;5.86;62.69
72772;SHT30;60894;42.544;1.516;2023-12-20T05:49:50;5.81;63.31
72772;SHT30;60894;42.544;1.516;2023-12-20T05:52:17;5.71;63.21
72772;SHT30;60894;42.544;1.516;2023-12-20T05:54:44;5.70;63.76
72772;SHT30;60894;42.544;1.516;2023-12-20T05:57:11;5.67;64.23
72772;SHT30;60894;42.544;1.516;2023-12-20T05:59:38;5.86;65.06
72772;SHT30;60894;42.544;1.516;2023-12-20T06:02:05;6.16;66.23
72772;SHT30;60894;42.544;1.516;2023-12-20T06:04:32;6.58;67.36
72772;SHT30;60894;42.544;1.516;2023-12-20T06:07:02;6.96;67.06
72772;SHT30;60894;42.544;1.516;2023-12-20T06:09:29;7.67;65.35
72772;SHT30;60894;42.544;1.516;2023-12-20T06:11:56;8.16;64.04
72772;SHT30;60894;42.544;1.516;2023-12-20T06:14:23;8.39;63.48
72772;SHT30;60894;42.544;1.516;2023-12-20T06:16:50;8.51;63.17
72772;SHT30;60894;42.544;1.516;2023-12-20T06:19:17;8.64;62.52
72772;SHT30;60894;42.544;1.516;2023-12-20T06:21:43;8.68;62.36
72772;SHT30;60894;42.544;1.516;2023-12-20T06:24:12;8.64;62.36
72772;SHT30;60894;42.544;1.516;2023-12-20T06:26:39;8.75;61.45
72772;SHT30;60894;42.544;1.516;2023-12-20T06:29:06;8.77;60.79
72772;SHT30;60894;42.544;1.516;2023-12-20T06:31:33;8.91;60.33
72772;SHT30;60894;42.544;1.516;2023-12-20T06:34:00;8.92;60.84
72772;SHT30;60894;42.544;1.516;2023-12-20T06:36:28;8.89;61.13
72772;SHT30;60894;42.544;1.516;2023-12-20T06:38:55;8.91;60.66
72772;SHT30;60894;42.544;1.516;2023-12-20T06:41:23;8.80;60.80
72772;SHT30;60894;42.544;1.516;2023-12-20T06:43:51;8.78;61.33
72772;SHT30;60894;42.544;1.516;2023-12-20T06:46:18;8.71;61.48
72772;SHT30;60894;42.544;1.516;2023-12-20T06:48:45;8.63;62.29
72772;SHT30;60894;42.544;1.516;2023-12-20T06:51:13;8.67;61.45
72772;SHT30;60894;42.544;1.516;2023-12-20T06:53:40;8.71;61.32
72772;SHT30;60894;42.544;1.516;2023-12-20T06:56:07;8.70;61.19
72772;SHT30;60894;42.544;1.516;2023-12-20T06:58:36;8.68;61.48
72772;SHT30;60894;42.544;1.516;2023-12-20T07:01:03;8.74;62.03
72772;SHT30;60894;42.544;1.516;2023-12-20T07:03:30;8.75;62.33
72772;SHT30;60894;42.544;1.516;2023-12-20T07:05:57;8.70;62.29
72772;SHT30;60894;42.544;1.516;2023-12-20T07:08:25;8.65;62.22
72772;SHT30;60894;42.544;1.516;2023-12-20T07:10:51;8.61;62.38
72772;SHT30;60894;42.544;1.516;2023-12-20T07:13:18;8.59;62.44
72772;SHT30;60894;42.544;1.516;2023-12-20T07:15:47;8.56;63.78
72772;SHT30;60894;42.544;1.516;2023-12-20T07:18:14;8.49;64.34
72772;SHT30;60894;42.544;1.516;2023-12-20T07:20:40;8.40;65.38
72772;SHT30;60894;42.544;1.516;2023-12-20T07:23:08;8.37;64.07
72772;SHT30;60894;42.544;1.516;2023-12-20T07:25:35;8.37;65.09
72772;SHT30;60894;42.544;1.516;2023-12-20T07:28:02;8.37;65.17
72772;SHT30;60894;42.544;1.516;2023-12-20T07:30:29;8.26;65.69
72772;SHT30;60894;42.544;1.516;2023-12-20T07:32:58;8.26;65.87
72772;SHT30;60894;42.544;1.516;2023-12-20T07:35:25;8.20;65.15
72772;SHT30;60894;42.544;1.516;2023-12-20T07:37:52;8.22;64.94
72772;SHT30;60894;42.544;1.516;2023-12-20T07:40:18;8.17;65.44
72772;SHT30;60894;42.544;1.516;2023-12-20T07:42:45;8.17;65.86
72772;SHT30;60894;42.544;1.516;2023-12-20T07:45:12;8.22;63.96
72772;SHT30;60894;42.544;1.516;2023-12-20T07:47:40;8.33;62.28
72772;SHT30;60894;42.544;1.516;2023-12-20T07:50:08;8.30;62.69
72772;SHT30;60894;42.544;1.516;2023-12-20T07:52:35;8.33;62.62
72772;SHT30;60894;42.544;1.516;2023-12-20T07:55:02;8.37;63.35
72772;SHT30;60894;42.544;1.516;2023-12-20T07:57:29;8.32;63.93
72772;SHT30;60894;42.544;1.516;2023-12-20T07:59:56;8.33;63.09
72772;SHT30;60894;42.544;1.516;2023-12-20T08:02:23;8.30;63.63
72772;SHT30;60894;42.544;1.516;2023-12-20T08:04:50;8.34;61.70
72772;SHT30;60894;42.544;1.516;2023-12-20T08:07:18;8.30;65.01
72772;SHT30;60894;42.544;1.516;2023-12-20T08:09:45;8.22;65.55
72772;SHT30;60894;42.544;1.516;2023-12-20T08:12:12;8.25;61.91
72772;SHT30;60894;42.544;1.516;2023-12-20T08:14:40;8.29;63.60
72772;SHT30;60894;42.544;1.516;2023-12-20T08:17:07;8.26;63.82
72772;SHT30;60894;42.544;1.516;2023-12-20T08:19:33;8.36;63.15
72772;SHT30;60894;42.544;1.516;2023-12-20T08:22:00;8.26;64.91
72772;SHT30;60894;42.544;1.516;2023-12-20T08:24:29;8.26;65.74
72772;SHT30;60894;42.544;1.516;2023-12-20T08:26:56;8.19;66.03
72772;SHT30;60894;42.544;1.516;2023-12-20T08:29:23;8.28;63.78
72772;SHT30;60894;42.544;1.516;2023-12-20T08:31:52;8.32;63.32
72772;SHT30;60894;42.544;1.516;2023-12-20T08:34:19;8.17;64.53
72772;SHT30;60894;42.544;1.516;2023-12-20T08:36:46;8.14;64.42
72772;SHT30;60894;42.544;1.516;2023-12-20T08:39:13;8.17;65.49
72772;SHT30;60894;42.544;1.516;2023-12-20T08:41:41;8.22;65.36
72772;SHT30;60894;42.544;1.516;2023-12-20T08:44:09;8.26;64.21
72772;SHT30;60894;42.544;1.516;2023-12-20T08:46:36;8.28;64.98
72772;SHT30;60894;42.544;1.516;2023-12-20T08:49:03;8.22;63.79
72772;SHT30;60894;42.544;1.516;2023-12-20T08:51:30;8.22;64.57
72772;SHT30;60894;42.544;1.516;2023-12-20T08:53:57;8.25;64.23
72772;SHT30;60894;42.544;1.516;2023-12-20T08:56:24;8.17;64.11
72772;SHT30;60894;42.544;1.516;2023-12-20T08:58:52;8.10;64.39
72772;SHT30;60894;42.544;1.516;2023-12-20T09:01:19;8.17;63.63
72772;SHT30;60894;42.544;1.516;2023-12-20T09:03:46;8.17;62.89
72772;SHT30;60894;42.544;1.516;2023-12-20T09:06:15;8.20;63.10
72772;SHT30;60894;42.544;1.516;2023-12-20T09:08:45;8.17;64.91
72772;SHT30;60894;42.544;1.516;2023-12-20T09:11:12;8.09;66.60
72772;SHT30;60894;42.544;1.516;2023-12-20T09:13:39;8.03;66.69
72772;SHT30;60894;42.544;1.516;2023-12-20T09:16:08;8.07;64.63
72772;SHT30;60894;42.544;1.516;2023-12-20T09:18:35;8.06;63.28
72772;SHT30;60894;42.544;1.516;2023-12-20T09:21:02;8.00;64.48
72772;SHT30;60894;42.544;1.516;2023-12-20T09:23:29;8.14;63.60
72772;SHT30;60894;42.544;1.516;2023-12-20T09:25:56;7.96;63.21
72772;SHT30;60894;42.544;1.516;2023-12-20T09:28:23;7.96;64.57
72772;SHT30;60894;42.544;1.516;2023-12-20T09:30:53;7.92;62.10
72772;SHT30;60894;42.544;1.516;2023-12-20T09:33:21;7.98;62.73
72772;SHT30;60894;42.544;1.516;2023-12-20T09:35:48;7.88;62.91
72772;SHT30;60894;42.544;1.516;2023-12-20T09:38:19;7.68;63.31
72772;SHT30;60894;42.544;1.516;2023-12-20T09:40:46;7.65;63.51
72772;SHT30;60894;42.544;1.516;2023-12-20T09:43:14;7.65;62.80
72772;SHT30;60894;42.544;1.516;2023-12-20T09:45:42;7.65;62.69
72772;SHT30;60894;42.544;1.516;2023-12-20T09:48:16;7.57;62.17
72772;SHT30;60894;42.544;1.516;2023-12-20T09:50:49;7.48;63.53
72772;SHT30;60894;42.544;1.516;2023-12-20T09:53:17;7.43;63.40
72772;SHT30;60894;42.544;1.516;2023-12-20T09:55:46;7.47;63.21
72772;SHT30;60894;42.544;1.516;2023-12-20T09:58:13;7.31;64.05
72772;SHT30;60894;42.544;1.516;2023-12-20T10:00:43;7.21;63.71
72772;SHT30;60894;42.544;1.516;2023-12-20T10:03:14;7.16;64.02
72772;SHT30;60894;42.544;1.516;2023-12-20T10:05:43;7.19;64.47
72772;SHT30;60894;42.544;1.516;2023-12-20T10:08:12;7.28;63.74
72772;SHT30;60894;42.544;1.516;2023-12-20T10:10:39;7.14;61.61
72772;SHT30;60894;42.544;1.516;2023-12-20T10:13:08;7.04;62.86
72772;SHT30;60894;42.544;1.516;2023-12-20T10:15:36;7.14;62.95
72772;SHT30;60894;42.544;1.516;2023-12-20T10:18:04;7.11;62.14
72772;SHT30;60894;42.544;1.516;2023-12-20T10:20:32;7.10;61.77
72772;SHT30;60894;42.544;1.516;2023-12-20T10:23:00;7.16;61.44
72772;SHT30;60894;42.544;1.516;2023-12-20T10:25:28;7.26;61.07
72772;SHT30;60894;42.544;1.516;2023-12-20T10:28:10;7.24;61.66
72772;SHT30;60894;42.544;1.516;2023-12-20T10:30:37;7.34;56.82
72772;SHT30;60894;42.544;1.516;2023-12-20T10:33:05;7.38;57.21
72772;SHT30;60894;42.544;1.516;2023-12-20T10:35:33;7.51;58.04
72772;SHT30;60894;42.544;1.516;2023-12-20T10:38:03;7.68;56.47
72772;SHT30;60894;42.544;1.516;2023-12-20T10:40:34;7.83;56.26
72772;SHT30;60894;42.544;1.516;2023-12-20T10:43:02;7.93;53.80
72772;SHT30;60894;42.544;1.516;2023-12-20T10:45:29;8.02;52.22
72772;SHT30;60894;42.544;1.516;2023-12-20T10:47:57;8.37;51.82
72772;SHT30;60894;42.544;1.516;2023-12-20T10:50:26;8.74;51.19
72772;SHT30;60894;42.544;1.516;2023-12-20T10:52:54;9.18;49.88
72772;SHT30;60894;42.544;1.516;2023-12-20T10:55:22;9.54;48.51
72772;SHT30;60894;42.544;1.516;2023-12-20T10:57:51;9.97;47.32
72772;SHT30;60894;42.544;1.516;2023-12-20T11:00:19;10.27;44.55
72772;SHT30;60894;42.544;1.516;2023-12-20T11:02:49;10.40;43.50
72772;SHT30;60894;42.544;1.516;2023-12-20T11:05:25;10.38;41.91
72772;SHT30;60894;42.544;1.516;2023-12-20T11:08:01;10.30;41.80
72772;SHT30;60894;42.544;1.516;2023-12-20T11:10:31;10.40;41.57
72772;SHT30;60894;42.544;1.516;2023-12-20T11:13:05;10.42;41.76
72772;SHT30;60894;42.544;1.516;2023-12-20T11:15:35;10.63;39.11
72772;SHT30;60894;42.544;1.516;2023-12-20T11:18:04;10.41;40.10
72772;SHT30;60894;42.544;1.516;2023-12-20T11:20:36;10.28;40.14
72772;SHT30;60894;42.544;1.516;2023-12-20T11:23:05;10.31;39.79
72772;SHT30;60894;42.544;1.516;2023-12-20T11:25:46;10.31;39.61
72772;SHT30;60894;42.544;1.516;2023-12-20T11:28:15;10.41;39.83
72772;SHT30;60894;42.544;1.516;2023-12-20T11:30:47;10.72;38.35
72772;SHT30;60894;42.544;1.516;2023-12-20T11:33:14;10.55;38.05
72772;SHT30;60894;42.544;1.516;2023-12-20T11:35:42;10.38;37.51
72772;SHT30;60894;42.544;1.516;2023-12-20T11:38:09;10.79;36.86
72772;SHT30;60894;42.544;1.516;2023-12-20T11:40:36;10.99;35.12
72772;SHT30;60894;42.544;1.516;2023-12-20T11:43:04;11.28;32.72
72772;SHT30;60894;42.544;1.516;2023-12-20T11:45:33;11.00;32.71
72772;SHT30;60894;42.544;1.516;2023-12-20T11:48:01;10.95;32.60
72772;SHT30;60894;42.544;1.516;2023-12-20T11:50:29;11.30;32.43
72772;SHT30;60894;42.544;1.516;2023-12-20T11:52:56;11.33;31.79
72772;SHT30;60894;42.544;1.516;2023-12-20T11:55:24;11.45;31.71
72772;SHT30;60894;42.544;1.516;2023-12-20T11:57:51;11.63;31.14
72772;SHT30;60894;42.544;1.516;2023-12-20T12:00:18;11.40;31.51
72772;SHT30;60894;42.544;1.516;2023-12-20T12:02:57;11.85;32.13
72772;SHT30;60894;42.544;1.516;2023-12-20T12:05:24;12.09;32.52
72772;SHT30;60894;42.544;1.516;2023-12-20T12:07:51;12.16;32.74
72772;SHT30;60894;42.544;1.516;2023-12-20T12:10:18;12.11;32.63
72772;SHT30;60894;42.544;1.516;2023-12-20T12:12:46;12.09;32.68
72772;SHT30;60894;42.544;1.516;2023-12-20T12:15:14;12.47;32.33
72772;SHT30;60894;42.544;1.516;2023-12-20T12:17:41;12.39;31.93
72772;SHT30;60894;42.544;1.516;2023-12-20T12:20:10;12.23;31.67
72772;SHT30;60894;42.544;1.516;2023-12-20T12:22:38;12.23;31.97
72772;SHT30;60894;42.544;1.516;2023-12-20T12:25:11;11.84;32.52
72772;SHT30;60894;42.544;1.516;2023-12-20T12:27:40;11.86;36.71
72772;SHT30;60894;42.544;1.516;2023-12-20T12:30:08;12.32;31.18
72772;SHT30;60894;42.544;1.516;2023-12-20T12:32:36;12.05;30.74
72772;SHT30;60894;42.544;1.516;2023-12-20T12:35:04;12.43;32.85
72772;SHT30;60894;42.544;1.516;2023-12-20T12:37:36;12.42;31.04
72772;SHT30;60894;42.544;1.516;2023-12-20T12:40:04;13.03;32.23
72772;SHT30;60894;42.544;1.516;2023-12-20T12:42:31;12.43;31.49
72772;SHT30;60894;42.544;1.516;2023-12-20T12:44:58;11.78;31.55
72772;SHT30;60894;42.544;1.516;2023-12-20T12:47:25;12.12;31.01
72772;SHT30;60894;42.544;1.516;2023-12-20T12:49:52;11.73;30.15
72772;SHT30;60894;42.544;1.516;2023-12-20T12:52:20;12.15;30.36
72772;SHT30;60894;42.544;1.516;2023-12-20T12:54:48;12.33;30.34
72772;SHT30;60894;42.544;1.516;2023-12-20T12:57:15;11.85;31.22
72772;SHT30;60894;42.544;1.516;2023-12-20T12:59:43;11.79;32.16
72772;SHT30;60894;42.544;1.516;2023-12-20T13:02:11;11.51;31.82
72772;SHT30;60894;42.544;1.516;2023-12-20T13:04:38;11.58;32.24
72772;SHT30;60894;42.544;1.516;2023-12-20T13:07:06;12.08;31.21
72772;SHT30;60894;42.544;1.516;2023-12-20T13:09:33;12.36;30.03
72772;SHT30;60894;42.544;1.516;2023-12-20T13:12:02;12.14;29.79
72772;SHT30;60894;42.544;1.516;2023-12-20T13:14:30;12.46;28.41
72772;SHT30;60894;42.544;1.516;2023-12-20T13:16:58;12.29;29.14
72772;SHT30;60894;42.544;1.516;2023-12-20T13:19:25;12.56;29.26
72772;SHT30;60894;42.544;1.516;2023-12-20T13:21:53;12.50;28.96
72772;SHT30;60894;42.544;1.516;2023-12-20T13:24:20;12.56;29.04
72772;SHT30;60894;42.544;1.516;2023-12-20T13:26:47;12.93;28.93
72772;SHT30;60894;42.544;1.516;2023-12-20T13:29:15;12.64;29.62
72772;SHT30;60894;42.544;1.516;2023-12-20T13:31:42;12.68;29.74
72772;SHT30;60894;42.544;1.516;2023-12-20T13:34:09;13.24;29.13
72772;SHT30;60894;42.544;1.516;2023-12-20T13:36:36;13.42;28.73
72772;SHT30;60894;42.544;1.516;2023-12-20T13:39:03;12.80;29.43
72772;SHT30;60894;42.544;1.516;2023-12-20T13:41:31;12.33;30.14
72772;SHT30;60894;42.544;1.516;2023-12-20T13:43:58;12.80;30.57
72772;SHT30;60894;42.544;1.516;2023-12-20T13:46:26;12.80;30.38
72772;SHT30;60894;42.544;1.516;2023-12-20T13:48:53;13.24;29.35
72772;SHT30;60894;42.544;1.516;2023-12-20T13:51:20;13.08;28.05
72772;SHT30;60894;42.544;1.516;2023-12-20T13:53:47;13.01;27.78
72772;SHT30;60894;42.544;1.516;2023-12-20T13:56:14;13.48;26.67
72772;SHT30;60894;42.544;1.516;2023-12-20T13:58:41;12.33;27.45
72772;SHT30;60894;42.544;1.516;2023-12-20T14:01:09;12.12;30.22
72772;SHT30;60894;42.544;1.516;2023-12-20T14:03:38;12.56;28.86
72772;SHT30;60894;42.544;1.516;2023-12-20T14:06:06;13.00;28.21
72772;SHT30;60894;42.544;1.516;2023-12-20T14:08:33;13.39;27.76
72772;SHT30;60894;42.544;1.516;2023-12-20T14:11:01;13.15;27.62
72772;SHT30;60894;42.544;1.516;2023-12-20T14:13:28;13.21;28.10
72772;SHT30;60894;42.544;1.516;2023-12-20T14:15:55;13.08;28.28
72772;SHT30;60894;42.544;1.516;2023-12-20T14:18:22;12.28;28.92
72772;SHT30;60894;42.544;1.516;2023-12-20T14:20:50;11.24;31.24
72772;SHT30;60894;42.544;1.516;2023-12-20T14:23:18;10.62;33.03
72772;SHT30;60894;42.544;1.516;2023-12-20T14:25:45;10.14;34.24
72772;SHT30;60894;42.544;1.516;2023-12-20T14:28:12;9.89;35.07
72772;SHT30;60894;42.544;1.516;2023-12-20T14:30:39;9.42;36.57
72772;SHT30;60894;42.544;1.516;2023-12-20T14:33:06;9.25;37.30
72772;SHT30;60894;42.544;1.516;2023-12-20T14:35:33;8.97;37.16
72772;SHT30;60894;42.544;1.516;2023-12-20T14:38:02;8.64;38.15
72772;SHT30;60894;42.544;1.516;2023-12-20T14:40:29;8.44;39.24
72772;SHT30;60894;42.544;1.516;2023-12-20T14:42:56;8.59;39.48
72772;SHT30;60894;42.544;1.516;2023-12-20T14:45:23;8.67;39.21
72772;SHT30;60894;42.544;1.516;2023-12-20T14:47:50;8.44;36.55
72772;SHT30;60894;42.544;1.516;2023-12-20T14:50:17;8.10;35.68
72772;SHT30;60894;42.544;1.516;2023-12-20T14:52:44;8.03;35.41
72772;SHT30;60894;42.544;1.516;2023-12-20T14:55:13;7.85;36.16
72772;SHT30;60894;42.544;1.516;2023-12-20T14:57:40;7.83;36.53
72772;SHT30;60894;42.544;1.516;2023-12-20T15:00:07;7.88;37.45
72772;SHT30;60894;42.544;1.516;2023-12-20T15:02:34;7.67;37.65
72772;SHT30;60894;42.544;1.516;2023-12-20T15:05:01;7.58;37.70
72772;SHT30;60894;42.544;1.516;2023-12-20T15:07:28;7.61;38.14
72772;SHT30;60894;42.544;1.516;2023-12-20T15:09:55;7.69;38.21
72772;SHT30;60894;42.544;1.516;2023-12-20T15:12:23;7.79;37.50
72772;SHT30;60894;42.544;1.516;2023-12-20T15:14:50;7.83;37.60
72772;SHT30;60894;42.544;1.516;2023-12-20T15:17:17;7.86;37.76
72772;SHT30;60894;42.544;1.516;2023-12-20T15:19:44;7.81;37.75
72772;SHT30;60894;42.544;1.516;2023-12-20T15:22:11;7.78;37.54
72772;SHT30;60894;42.544;1.516;2023-12-20T15:24:38;7.75;37.32
72772;SHT30;60894;42.544;1.516;2023-12-20T15:27:07;7.64;38.37
72772;SHT30;60894;42.544;1.516;2023-12-20T15:29:36;7.68;38.03
72772;SHT30;60894;42.544;1.516;2023-12-20T15:32:04;7.71;37.21
72772;SHT30;60894;42.544;1.516;2023-12-20T15:34:31;7.79;36.56
72772;SHT30;60894;42.544;1.516;2023-12-20T15:36:58;7.64;36.10
72772;SHT30;60894;42.544;1.516;2023-12-20T15:39:25;7.50;36.42
72772;SHT30;60894;42.544;1.516;2023-12-20T15:41:53;7.38;36.92
72772;SHT30;60894;42.544;1.516;2023-12-20T15:44:20;7.43;37.04